Time;durP1;ratioP1;P1;durP2;ratioP2;P2;SDS_P1;SDS_P2;PMS_P1;PMS_P2;Temp;Humidity;BMP_temperature;BMP_pressure;BME280_temperature;BME280_humidity;BME280_pressure;Samples;Min_cycle;Max_cycle;Signal;HPM_P1;HPM_P2
2022/05/24 00:01:47;;;;;;;6.47;5.25;;;;;;;;;;4911799;29;20036;-78
2022/05/24 00:04:14;;;;;;;9.55;5.65;;;;;;;;;;4935274;29;20057;-79
2022/05/24 00:06:42;;;;;;;5.53;4.30;;;;;;;;;;4939655;29;20059;-79
2022/05/24 00:09:09;;;;;;;5.50;3.20;;;;;;;;;;4934573;29;20051;-79
2022/05/24 00:11:36;;;;;;;4.93;3.60;;;;;;;;;;4934023;29;20044;-78
2022/05/24 00:14:06;;;;;;;4.50;4.05;;;;;;;;;;4917656;29;20044;-78
2022/05/24 00:16:33;;;;;;;5.78;4.13;;;;;;;;;;4933633;29;20058;-78
2022/05/24 00:19:00;;;;;;;4.20;3.50;;;;;;;;;;4934658;29;20095;-79
2022/05/24 00:21:28;;;;;;;4.97;3.58;;;;;;;;;;4934193;29;20473;-79
2022/05/24 00:23:55;;;;;;;5.43;3.88;;;;;;;;;;4934309;29;20059;-78
2022/05/24 00:26:30;;;;;;;7.22;4.18;;;;;;;;;;4927729;29;20067;-79
2022/05/24 00:28:57;;;;;;;6.25;4.05;;;;;;;;;;4914836;29;20098;-78
2022/05/24 00:31:24;;;;;;;6.53;4.13;;;;;;;;;;4914946;29;20056;-79
2022/05/24 00:33:52;;;;;;;6.63;4.40;;;;;;;;;;4933729;29;20098;-78
2022/05/24 00:36:21;;;;;;;6.68;4.13;;;;;;;;;;4923267;29;20071;-78
2022/05/24 00:38:50;;;;;;;11.77;4.25;;;;;;;;;;4934644;29;20055;-79
2022/05/24 00:41:37;;;;;;;6.28;4.15;;;;;;;;;;4934063;29;20044;-78
2022/05/24 00:44:22;;;;;;;5.50;4.38;;;;;;;;;;4933099;29;20111;-78
2022/05/24 00:46:53;;;;;;;3.95;3.60;;;;;;;;;;4933181;29;20050;-79
2022/05/24 00:49:32;;;;;;;6.38;4.32;;;;;;;;;;4934341;29;20083;-79
2022/05/24 00:52:02;;;;;;;7.32;4.40;;;;;;;;;;4933788;29;20054;-79
2022/05/24 00:54:30;;;;;;;7.13;4.13;;;;;;;;;;4933816;29;20150;-78
2022/05/24 00:57:01;;;;;;;4.65;3.90;;;;;;;;;;4932981;29;20054;-78
2022/05/24 00:59:35;;;;;;;7.07;4.32;;;;;;;;;;4933214;29;20059;-79
2022/05/24 01:02:04;;;;;;;5.05;4.22;;;;;;;;;;4933245;29;20509;-78
2022/05/24 01:04:35;;;;;;;6.55;4.50;;;;;;;;;;4917355;29;20051;-79
2022/05/24 01:07:02;;;;;;;5.05;4.25;;;;;;;;;;4932120;29;20047;-78
2022/05/24 01:09:41;;;;;;;4.05;3.67;;;;;;;;;;4916717;29;20047;-78
2022/05/24 01:12:11;;;;;;;5.13;4.18;;;;;;;;;;4937741;29;20046;-78
2022/05/24 01:14:39;;;;;;;4.18;3.72;;;;;;;;;;4952570;29;20085;-79
2022/05/24 01:17:06;;;;;;;8.63;4.40;;;;;;;;;;4923499;29;20063;-78
2022/05/24 01:19:43;;;;;;;8.98;4.70;;;;;;;;;;4933579;29;20054;-78
2022/05/24 01:22:29;;;;;;;6.43;4.15;;;;;;;;;;4915771;29;20159;-78
2022/05/24 01:25:01;;;;;;;10.35;4.18;;;;;;;;;;4932654;29;20071;-78
2022/05/24 01:27:29;;;;;;;7.70;4.40;;;;;;;;;;4932240;29;20067;-78
2022/05/24 01:29:57;;;;;;;5.07;4.45;;;;;;;;;;4933236;29;20043;-78
2022/05/24 01:38:02;;;;;;;5.90;4.38;;;;;;;;;;4932790;29;20044;-78
2022/05/24 01:40:29;;;;;;;8.25;4.40;;;;;;;;;;4932925;29;20138;-79
2022/05/24 01:42:57;;;;;;;4.75;4.32;;;;;;;;;;4932446;29;20043;-79
2022/05/24 01:45:28;;;;;;;7.90;4.60;;;;;;;;;;4933826;29;20039;-78
2022/05/24 01:47:59;;;;;;;7.72;4.82;;;;;;;;;;4933164;29;20137;-79
2022/05/24 01:50:27;;;;;;;6.83;4.30;;;;;;;;;;4916070;29;20052;-79
2022/05/24 01:53:01;;;;;;;6.18;4.82;;;;;;;;;;4933474;29;20052;-79
2022/05/24 01:55:31;;;;;;;7.63;4.30;;;;;;;;;;4933033;29;20075;-79
2022/05/24 01:58:00;;;;;;;4.43;4.00;;;;;;;;;;4925728;29;20048;-79
2022/05/24 02:00:27;;;;;;;7.90;4.45;;;;;;;;;;4932262;29;20055;-79
2022/05/24 02:02:56;;;;;;;9.82;4.70;;;;;;;;;;4931125;29;20044;-78
2022/05/24 02:05:32;;;;;;;5.10;4.07;;;;;;;;;;4932452;29;20051;-79
2022/05/24 02:08:00;;;;;;;4.20;3.80;;;;;;;;;;4915795;29;20048;-78
2022/05/24 02:10:30;;;;;;;4.70;3.97;;;;;;;;;;4932369;29;20043;-79
2022/05/24 02:12:59;;;;;;;4.97;4.22;;;;;;;;;;4945811;29;20039;-79
2022/05/24 02:15:30;;;;;;;7.32;4.32;;;;;;;;;;4932468;29;20040;-79
2022/05/24 02:18:09;;;;;;;5.00;4.43;;;;;;;;;;4938474;29;20043;-79
2022/05/24 02:20:38;;;;;;;7.28;5.20;;;;;;;;;;4948076;29;20047;-79
2022/05/24 02:23:07;;;;;;;5.43;4.68;;;;;;;;;;4938468;29;20055;-78
2022/05/24 02:25:36;;;;;;;6.38;4.50;;;;;;;;;;4936399;29;20058;-79
2022/05/24 02:28:08;;;;;;;5.38;4.35;;;;;;;;;;4936753;29;20051;-79
2022/05/24 02:30:37;;;;;;;6.03;4.50;;;;;;;;;;4921164;29;20047;-79
2022/05/24 02:33:04;;;;;;;8.70;4.75;;;;;;;;;;4950412;29;20058;-79
2022/05/24 02:35:32;;;;;;;4.82;4.38;;;;;;;;;;4940779;29;20135;-79
2022/05/24 02:37:59;;;;;;;4.65;4.25;;;;;;;;;;4941396;29;20074;-79
2022/05/24 02:43:13;;;;;;;6.82;4.45;;;;;;;;;;4935490;29;20047;-79
2022/05/24 02:45:40;;;;;;;4.20;3.80;;;;;;;;;;4936037;29;20065;-78
2022/05/24 02:48:08;;;;;;;4.50;3.97;;;;;;;;;;4936261;29;20059;-79
2022/05/24 02:50:35;;;;;;;4.50;4.20;;;;;;;;;;4938363;29;20043;-79
2022/05/24 02:53:03;;;;;;;4.57;4.18;;;;;;;;;;4905563;29;20044;-78
2022/05/24 02:55:30;;;;;;;6.82;4.45;;;;;;;;;;4937105;29;20051;-78
2022/05/24 02:57:58;;;;;;;5.38;4.30;;;;;;;;;;4929159;29;20043;-79
2022/05/24 03:00:25;;;;;;;5.30;3.80;;;;;;;;;;4918587;29;20058;-79
2022/05/24 03:02:53;;;;;;;6.05;4.55;;;;;;;;;;4933456;29;20622;-78
2022/05/24 03:05:25;;;;;;;5.65;4.10;;;;;;;;;;4934385;29;20047;-78
2022/05/24 03:10:39;;;;;;;6.30;4.55;;;;;;;;;;4937866;29;20048;-79
2022/05/24 03:15:53;;;;;;;5.13;4.20;;;;;;;;;;4926221;29;20126;-79
2022/05/24 03:18:22;;;;;;;5.53;4.20;;;;;;;;;;4939600;29;20419;-79
2022/05/24 03:20:49;;;;;;;6.68;3.83;;;;;;;;;;4940630;29;20051;-80
2022/05/24 03:23:17;;;;;;;5.20;4.10;;;;;;;;;;4941383;29;20048;-80
2022/05/24 03:25:44;;;;;;;4.88;3.88;;;;;;;;;;4939491;29;20047;-78
2022/05/24 03:28:18;;;;;;;4.30;4.00;;;;;;;;;;4922998;29;20615;-79
2022/05/24 03:30:46;;;;;;;5.22;4.20;;;;;;;;;;4904948;29;20134;-80
2022/05/24 03:33:13;;;;;;;5.18;4.55;;;;;;;;;;4934287;29;20062;-80
2022/05/24 03:35:41;;;;;;;6.35;4.50;;;;;;;;;;4935421;29;20361;-79
2022/05/24 03:38:09;;;;;;;5.03;4.22;;;;;;;;;;4936420;29;20039;-79
2022/05/24 03:40:36;;;;;;;8.65;4.13;;;;;;;;;;4935343;29;20126;-79
2022/05/24 03:43:06;;;;;;;4.40;4.00;;;;;;;;;;4934075;29;20067;-79
2022/05/24 03:45:33;;;;;;;6.45;4.15;;;;;;;;;;4935631;29;20417;-79
2022/05/24 03:48:01;;;;;;;7.07;4.18;;;;;;;;;;4916104;29;20440;-79
2022/05/24 03:50:28;;;;;;;9.15;5.15;;;;;;;;;;4925534;29;20043;-79
2022/05/24 03:52:55;;;;;;;5.97;4.78;;;;;;;;;;4930967;29;20055;-79
2022/05/24 03:55:23;;;;;;;8.40;6.70;;;;;;;;;;4932675;29;20414;-79
2022/05/24 03:58:01;;;;;;;9.90;8.07;;;;;;;;;;4937768;29;20066;-77
2022/05/24 04:00:31;;;;;;;10.02;8.68;;;;;;;;;;4933106;29;20047;-77
2022/05/24 04:02:59;;;;;;;15.00;9.68;;;;;;;;;;4914156;29;20044;-77
2022/05/24 04:05:26;;;;;;;11.77;8.93;;;;;;;;;;4932560;29;20134;-77
2022/05/24 04:07:53;;;;;;;9.48;8.63;;;;;;;;;;4932441;29;20040;-77
2022/05/24 04:10:21;;;;;;;14.30;8.90;;;;;;;;;;4927828;29;20529;-78
2022/05/24 04:12:48;;;;;;;8.73;7.93;;;;;;;;;;4910804;29;20123;-78
2022/05/24 04:15:16;;;;;;;8.50;7.70;;;;;;;;;;4933650;29;20040;-77
2022/05/24 04:17:43;;;;;;;7.85;7.07;;;;;;;;;;4933954;29;20071;-78
2022/05/24 04:20:11;;;;;;;8.77;7.20;;;;;;;;;;4931714;29;20565;-78
2022/05/24 04:22:41;;;;;;;7.80;7.00;;;;;;;;;;4927352;29;20147;-78
2022/05/24 04:25:08;;;;;;;8.45;7.47;;;;;;;;;;4928369;29;20509;-78
2022/05/24 04:27:36;;;;;;;9.15;7.63;;;;;;;;;;4934103;29;20056;-78
2022/05/24 04:30:06;;;;;;;8.48;6.85;;;;;;;;;;4931802;29;20046;-77
2022/05/24 04:32:34;;;;;;;8.15;7.45;;;;;;;;;;4916769;29;20094;-79
2022/05/24 04:35:01;;;;;;;9.25;7.60;;;;;;;;;;4930815;29;20047;-78
2022/05/24 04:37:29;;;;;;;7.28;6.65;;;;;;;;;;4930972;29;20044;-82
2022/05/24 04:39:56;;;;;;;8.15;7.35;;;;;;;;;;4935171;29;20052;-79
2022/05/24 04:42:24;;;;;;;9.35;7.68;;;;;;;;;;4928181;29;20777;-78
2022/05/24 04:44:53;;;;;;;8.90;7.13;;;;;;;;;;4930352;29;20063;-78
2022/05/24 04:47:22;;;;;;;8.07;7.28;;;;;;;;;;4930158;29;20461;-78
2022/05/24 04:49:54;;;;;;;13.13;7.57;;;;;;;;;;4934014;29;20044;-78
2022/05/24 04:52:25;;;;;;;7.97;7.03;;;;;;;;;;4925136;29;20134;-78
2022/05/24 04:54:53;;;;;;;;;;;;;;;;;;4929641;29;20054;-77
2022/05/24 04:57:21;;;;;;;9.35;7.82;;;;;;;;;;4939820;29;19932;-78
2022/05/24 04:59:48;;;;;;;7.82;7.07;;;;;;;;;;4940403;29;20126;-78
2022/05/24 05:02:18;;;;;;;7.18;6.43;;;;;;;;;;4924422;29;20052;-78
2022/05/24 05:04:45;;;;;;;8.23;7.53;;;;;;;;;;4921338;29;20040;-78
2022/05/24 05:07:16;;;;;;;7.80;7.07;;;;;;;;;;4914208;29;20533;-77
2022/05/24 05:09:44;;;;;;;10.35;7.78;;;;;;;;;;4926892;29;20067;-78
2022/05/24 05:12:12;;;;;;;8.68;7.05;;;;;;;;;;4925508;29;20055;-78
2022/05/24 05:14:40;;;;;;;7.47;6.35;;;;;;;;;;4933544;29;20043;-78
2022/05/24 05:17:11;;;;;;;8.32;7.55;;;;;;;;;;4934524;29;20501;-78
2022/05/24 05:19:39;;;;;;;6.93;6.28;;;;;;;;;;4933100;29;20046;-80
2022/05/24 05:22:07;;;;;;;7.28;6.70;;;;;;;;;;4929113;29;20044;-78
2022/05/24 05:24:35;;;;;;;6.80;6.20;;;;;;;;;;4928323;29;20051;-78
2022/05/24 05:27:02;;;;;;;6.38;5.80;;;;;;;;;;4921777;29;20102;-78
2022/05/24 05:32:32;;;;;;;11.60;6.07;;;;;;;;;;4934743;29;20040;-78
2022/05/24 05:35:00;;;;;;;7.00;5.75;;;;;;;;;;4938252;29;20051;-79
2022/05/24 05:37:29;;;;;;;6.28;5.68;;;;;;;;;;4913408;29;20044;-79
2022/05/24 05:39:56;;;;;;;6.15;5.65;;;;;;;;;;4942827;29;20043;-79
2022/05/24 05:42:24;;;;;;;5.05;4.75;;;;;;;;;;4926584;29;20069;-79
2022/05/24 05:44:52;;;;;;;8.00;5.05;;;;;;;;;;4943065;29;20051;-79
2022/05/24 05:47:20;;;;;;;4.90;4.50;;;;;;;;;;4919247;29;20409;-81
2022/05/24 05:49:47;;;;;;;6.03;5.43;;;;;;;;;;4941343;29;20045;-78
2022/05/24 05:52:17;;;;;;;6.65;5.03;;;;;;;;;;4940913;29;20047;-78
2022/05/24 05:54:45;;;;;;;5.18;4.78;;;;;;;;;;4908422;29;20138;-79
2022/05/24 05:57:12;;;;;;;5.07;4.68;;;;;;;;;;4942204;29;20043;-78
2022/05/24 05:59:40;;;;;;;6.85;6.10;;;;;;;;;;4917761;29;20048;-78
2022/05/24 06:02:07;;;;;;;6.45;5.90;;;;;;;;;;4933118;29;20051;-79
2022/05/24 06:04:35;;;;;;;8.43;6.43;;;;;;;;;;4946172;29;20054;-82
2022/05/24 06:07:03;;;;;;;8.88;6.20;;;;;;;;;;4933704;29;20036;-78
2022/05/24 06:09:31;;;;;;;7.15;5.57;;;;;;;;;;4934549;29;20035;-79
2022/05/24 06:11:59;;;;;;;6.45;5.85;;;;;;;;;;4893483;29;20081;-79
2022/05/24 06:14:27;;;;;;;7.82;6.28;;;;;;;;;;4920815;29;20047;-78
2022/05/24 06:17:17;;;;;;;8.32;6.65;;;;;;;;;;4944496;29;20036;-78
2022/05/24 06:19:45;;;;;;;6.95;6.35;;;;;;;;;;4948725;29;20046;-78
2022/05/24 06:22:13;;;;;;;6.15;5.65;;;;;;;;;;4929969;29;20759;-79
2022/05/24 06:24:40;;;;;;;7.25;6.32;;;;;;;;;;4945778;29;20060;-79
2022/05/24 06:27:09;;;;;;;10.38;5.75;;;;;;;;;;4949073;29;20465;-78
2022/05/24 06:29:36;;;;;;;6.95;5.90;;;;;;;;;;4947489;29;20506;-79
2022/05/24 06:32:04;;;;;;;7.60;6.07;;;;;;;;;;4910729;29;20051;-79
2022/05/24 06:34:32;;;;;;;6.07;5.63;;;;;;;;;;4941539;29;20052;-79
2022/05/24 06:36:59;;;;;;;6.22;5.63;;;;;;;;;;4919213;29;20767;-80
2022/05/24 06:39:27;;;;;;;8.38;5.80;;;;;;;;;;4937083;29;20146;-79
2022/05/24 06:41:59;;;;;;;5.97;5.47;;;;;;;;;;4936308;29;20630;-79
2022/05/24 06:44:28;;;;;;;5.72;5.32;;;;;;;;;;4937388;29;20052;-80
2022/05/24 06:46:55;;;;;;;6.43;5.75;;;;;;;;;;4940296;29;20099;-80
2022/05/24 06:49:23;;;;;;;9.05;5.50;;;;;;;;;;4947378;29;20158;-78
2022/05/24 06:51:50;;;;;;;6.55;5.70;;;;;;;;;;4947208;29;20071;-79
2022/05/24 06:54:17;;;;;;;5.97;5.43;;;;;;;;;;4944677;29;20043;-79
2022/05/24 06:56:45;;;;;;;6.88;5.07;;;;;;;;;;4946110;29;20048;-78
2022/05/24 07:04:47;;;;;;;5.43;5.03;;;;;;;;;;4929055;29;20047;-78
2022/05/24 07:07:16;;;;;;;8.00;5.03;;;;;;;;;;4930431;29;20613;-79
2022/05/24 07:09:44;;;;;;;5.88;5.40;;;;;;;;;;4929102;29;20040;-79
2022/05/24 07:12:11;;;;;;;5.70;5.13;;;;;;;;;;4936239;29;20047;-81
2022/05/24 07:14:39;;;;;;;6.35;5.22;;;;;;;;;;4919620;29;20047;-79
2022/05/24 07:17:06;;;;;;;7.05;6.15;;;;;;;;;;4918451;29;20059;-79
2022/05/24 07:19:34;;;;;;;6.05;5.53;;;;;;;;;;4936494;29;20067;-79
2022/05/24 07:22:01;;;;;;;5.70;5.20;;;;;;;;;;4919456;29;20051;-80
2022/05/24 07:24:28;;;;;;;7.57;5.30;;;;;;;;;;4935677;29;20095;-80
2022/05/24 07:26:56;;;;;;;5.32;4.68;;;;;;;;;;4938619;29;20098;-80
2022/05/24 07:29:23;;;;;;;5.90;4.78;;;;;;;;;;4945528;29;20074;-79
2022/05/24 07:31:51;;;;;;;4.88;4.47;;;;;;;;;;4929243;29;20169;-79
2022/05/24 07:34:19;;;;;;;5.28;4.78;;;;;;;;;;4945119;29;20071;-80
2022/05/24 07:36:46;;;;;;;5.95;5.30;;;;;;;;;;4927051;29;20043;-79
2022/05/24 07:39:13;;;;;;;7.70;5.15;;;;;;;;;;4945674;29;20039;-79
2022/05/24 07:47:33;;;;;;;5.57;4.97;;;;;;;;;;4907764;29;20047;-81
2022/05/24 07:50:01;;;;;;;5.20;4.70;;;;;;;;;;4950418;29;20055;-79
2022/05/24 07:52:28;;;;;;;5.53;4.53;;;;;;;;;;4934897;29;20148;-80
2022/05/24 07:54:55;;;;;;;6.93;5.20;;;;;;;;;;4916906;29;20051;-79
2022/05/24 07:57:22;;;;;;;5.38;4.80;;;;;;;;;;4933633;29;20126;-78
2022/05/24 07:59:55;;;;;;;5.75;4.93;;;;;;;;;;4934548;29;20080;-83
2022/05/24 08:02:23;;;;;;;5.25;4.63;;;;;;;;;;4934485;29;20067;-78
2022/05/24 08:04:53;;;;;;;6.40;5.20;;;;;;;;;;4937216;29;20043;-80
2022/05/24 08:07:21;;;;;;;4.75;4.35;;;;;;;;;;4937805;29;20421;-80
2022/05/24 08:09:49;;;;;;;5.63;4.60;;;;;;;;;;4937826;29;20071;-79
2022/05/24 08:12:16;;;;;;;5.07;4.57;;;;;;;;;;4917923;29;20580;-78
2022/05/24 08:14:43;;;;;;;4.50;4.10;;;;;;;;;;4935352;29;20051;-78
2022/05/24 08:17:11;;;;;;;4.95;4.30;;;;;;;;;;4933575;29;20465;-79
2022/05/24 08:19:44;;;;;;;4.80;4.20;;;;;;;;;;4935870;29;20043;-79
2022/05/24 08:22:12;;;;;;;4.05;3.65;;;;;;;;;;4893804;29;20429;-79
2022/05/24 08:24:39;;;;;;;6.65;4.07;;;;;;;;;;4929931;29;20050;-79
2022/05/24 08:27:09;;;;;;;5.85;3.53;;;;;;;;;;4935240;29;20059;-79
2022/05/24 08:29:36;;;;;;;5.18;3.70;;;;;;;;;;4935529;29;20048;-79
2022/05/24 08:32:04;;;;;;;4.40;4.03;;;;;;;;;;4919040;29;20070;-78
2022/05/24 08:34:32;;;;;;;4.25;3.90;;;;;;;;;;4916867;29;20052;-79
2022/05/24 08:37:02;;;;;;;5.43;4.30;;;;;;;;;;4908741;29;20055;-80
2022/05/24 08:39:29;;;;;;;4.55;4.15;;;;;;;;;;4935906;29;20107;-79
2022/05/24 08:42:16;;;;;;;8.70;4.25;;;;;;;;;;4936689;29;20158;-79
2022/05/24 08:53:46;;;;;;;3.75;3.28;;;;;;;;;;4918641;29;19942;-80
2022/05/24 08:56:18;;;;;;;4.00;3.60;;;;;;;;;;4921156;29;20054;-79
2022/05/24 08:58:50;;;;;;;4.93;4.50;;;;;;;;;;4912402;29;20655;-79
2022/05/24 09:01:32;;;;;;;6.13;4.25;;;;;;;;;;4941260;29;20040;-79
2022/05/24 09:04:19;;;;;;;4.43;4.13;;;;;;;;;;4948053;29;20047;-80
2022/05/24 09:06:59;;;;;;;4.78;4.30;;;;;;;;;;4924843;29;20071;-79
2022/05/24 09:09:55;;;;;;;4.72;3.55;;;;;;;;;;4914603;29;20047;-78
2022/05/24 09:12:43;;;;;;;5.05;3.88;;;;;;;;;;4937108;29;20142;-79
2022/05/24 09:15:17;;;;;;;4.15;3.28;;;;;;;;;;4941310;29;20101;-79
2022/05/24 09:17:54;;;;;;;3.95;3.55;;;;;;;;;;4898398;29;20043;-80
2022/05/24 09:20:25;;;;;;;3.63;3.20;;;;;;;;;;4942196;29;20046;-79
2022/05/24 09:23:09;;;;;;;6.43;3.08;;;;;;;;;;4925654;29;20046;-80
2022/05/24 09:25:58;;;;;;;3.38;2.80;;;;;;;;;;4945290;29;20513;-81
2022/05/24 09:28:42;;;;;;;4.07;2.60;;;;;;;;;;4944405;29;20048;-80
2022/05/24 09:31:38;;;;;;;3.20;2.90;;;;;;;;;;4937479;29;20035;-79
2022/05/24 09:34:18;;;;;;;3.47;3.15;;;;;;;;;;4918582;29;20094;-80
2022/05/24 09:37:04;;;;;;;4.90;2.97;;;;;;;;;;4937625;29;20053;-79
2022/05/24 09:39:36;;;;;;;6.82;3.28;;;;;;;;;;4941712;28;20397;-80
2022/05/24 09:42:04;;;;;;;6.32;3.25;;;;;;;;;;4940429;29;20051;-79
2022/05/24 09:44:47;;;;;;;4.47;2.85;;;;;;;;;;4925760;29;20046;-79
2022/05/24 09:47:45;;;;;;;3.03;2.80;;;;;;;;;;4929260;29;20043;-80
2022/05/24 09:50:32;;;;;;;4.03;2.85;;;;;;;;;;4889876;29;20069;-80
2022/05/24 09:53:02;;;;;;;2.85;2.58;;;;;;;;;;4938329;29;20074;-79
2022/05/24 09:55:31;;;;;;;2.97;2.78;;;;;;;;;;4936855;29;20044;-80
2022/05/24 09:58:15;;;;;;;5.80;2.70;;;;;;;;;;4935730;29;20520;-79
2022/05/24 10:01:01;;;;;;;2.75;2.55;;;;;;;;;;4929673;29;20062;-80
2022/05/24 10:03:31;;;;;;;5.63;2.85;;;;;;;;;;4918344;29;20067;-81
2022/05/24 10:06:07;;;;;;;2.97;2.33;;;;;;;;;;4926912;29;20477;-79
2022/05/24 10:08:36;;;;;;;3.58;3.22;;;;;;;;;;4921591;29;20123;-80
2022/05/24 10:11:05;;;;;;;5.78;2.92;;;;;;;;;;4931083;29;20044;-79
2022/05/24 10:13:44;;;;;;;4.32;2.70;;;;;;;;;;4910523;29;20044;-78
2022/05/24 10:16:12;;;;;;;2.92;2.70;;;;;;;;;;4903220;29;20374;-80
2022/05/24 10:18:50;;;;;;;7.45;2.83;;;;;;;;;;4934241;29;20055;-78
2022/05/24 10:21:23;;;;;;;4.22;3.25;;;;;;;;;;4935352;29;20532;-78
2022/05/24 10:23:58;;;;;;;7.03;2.80;;;;;;;;;;4935586;29;20405;-78
2022/05/24 10:26:28;;;;;;;4.78;3.15;;;;;;;;;;4934790;29;20050;-79
2022/05/24 10:29:04;;;;;;;4.32;3.20;;;;;;;;;;4923191;29;20150;-79
2022/05/24 10:31:45;;;;;;;4.10;3.05;;;;;;;;;;4934145;29;20588;-79
2022/05/24 10:40:43;;;;;;;3.80;3.28;;;;;;;;;;4862496;29;20091;-80
2022/05/24 10:43:14;;;;;;;3.65;3.35;;;;;;;;;;4908170;29;20051;-79
2022/05/24 10:45:50;;;;;;;4.80;3.35;;;;;;;;;;4933521;29;20054;-79
2022/05/24 10:48:23;;;;;;;4.70;3.80;;;;;;;;;;4912685;29;20524;-79
2022/05/24 10:50:55;;;;;;;3.88;3.58;;;;;;;;;;4895440;29;20047;-78
2022/05/24 10:53:40;;;;;;;5.63;3.28;;;;;;;;;;4929111;29;20115;-79
2022/05/24 10:56:25;;;;;;;5.55;3.30;;;;;;;;;;4933677;29;20069;-79
2022/05/24 10:58:57;;;;;;;5.30;3.47;;;;;;;;;;4934271;29;20062;-79
2022/05/24 11:01:27;;;;;;;8.10;4.22;;;;;;;;;;4918709;29;20139;-80
2022/05/24 11:03:57;;;;;;;5.88;4.10;;;;;;;;;;4943997;29;20078;-79
2022/05/24 11:06:40;;;;;;;11.32;9.13;;;;;;;;;;4940331;29;20039;-78
2022/05/24 11:09:21;;;;;;;11.38;8.70;;;;;;;;;;4925330;29;20064;-78
2022/05/24 11:11:58;;;;;;;5.55;3.83;;;;;;;;;;4919523;29;20051;-78
2022/05/24 11:14:30;;;;;;;6.47;3.58;;;;;;;;;;4941802;29;20095;-80
2022/05/24 11:16:58;;;;;;;4.30;3.78;;;;;;;;;;4925980;29;20047;-80
2022/05/24 11:19:27;;;;;;;4.18;3.47;;;;;;;;;;4934550;29;20040;-79
2022/05/24 11:22:13;;;;;;;6.45;3.70;;;;;;;;;;4922075;29;20075;-78
2022/05/24 11:24:59;;;;;;;4.28;3.85;;;;;;;;;;4925973;29;20047;-80
2022/05/24 11:27:26;;;;;;;8.32;3.75;;;;;;;;;;4932732;29;20048;-81
2022/05/24 11:29:55;;;;;;;4.32;3.92;;;;;;;;;;4938876;29;20051;-82
2022/05/24 11:32:32;;;;;;;6.63;3.00;;;;;;;;;;4937385;29;21247;-80
2022/05/24 11:35:03;;;;;;;8.13;2.60;;;;;;;;;;4937269;29;20043;-81
2022/05/24 11:37:35;;;;;;;5.03;1.73;;;;;;;;;;4943240;29;20056;-80
2022/05/24 11:40:22;;;;;;;2.80;1.50;;;;;;;;;;4924746;29;20040;-81
2022/05/24 11:42:49;;;;;;;12.48;1.60;;;;;;;;;;4923425;29;20052;-81
2022/05/24 11:45:37;;;;;;;4.47;1.05;;;;;;;;;;4920501;29;20050;-81
2022/05/24 11:48:07;;;;;;;2.28;1.15;;;;;;;;;;4932970;29;20047;-83
2022/05/24 11:50:35;;;;;;;6.60;1.10;;;;;;;;;;4921047;29;20047;-79
2022/05/24 11:53:10;;;;;;;0.90;0.80;;;;;;;;;;4939608;29;20048;-80
2022/05/24 11:55:43;;;;;;;0.70;0.70;;;;;;;;;;4909866;29;20040;-81
2022/05/24 11:58:19;;;;;;;3.67;1.00;;;;;;;;;;4933464;29;20036;-80
2022/05/24 12:01:02;;;;;;;5.70;1.13;;;;;;;;;;4930519;29;20461;-81
2022/05/24 12:09:16;;;;;;;0.70;0.70;;;;;;;;;;4927854;29;20776;-80
2022/05/24 12:11:44;;;;;;;0.98;0.80;;;;;;;;;;4932518;29;20126;-79
2022/05/24 12:14:11;;;;;;;1.45;0.90;;;;;;;;;;4918256;29;20102;-81
2022/05/24 12:16:42;;;;;;;3.05;1.02;;;;;;;;;;4934836;29;20051;-80
2022/05/24 12:19:11;;;;;;;0.80;0.80;;;;;;;;;;4926700;29;20039;-79
2022/05/24 12:21:40;;;;;;;1.23;0.80;;;;;;;;;;4914191;29;20056;-79
2022/05/24 12:24:23;;;;;;;1.95;0.95;;;;;;;;;;4938318;29;20090;-81
2022/05/24 12:27:09;;;;;;;1.52;1.30;;;;;;;;;;4921874;29;20035;-80
2022/05/24 12:29:40;;;;;;;0.93;0.80;;;;;;;;;;4937182;29;20118;-79
2022/05/24 12:32:08;;;;;;;1.27;1.02;;;;;;;;;;4940300;29;20048;-80
2022/05/24 12:34:35;;;;;;;1.10;1.00;;;;;;;;;;4938803;29;20118;-80
2022/05/24 12:37:10;;;;;;;1.33;1.10;;;;;;;;;;4934287;29;20047;-78
2022/05/24 12:39:38;;;;;;;2.70;0.77;;;;;;;;;;4916704;29;20051;-80
2022/05/24 12:42:09;;;;;;;1.08;1.08;;;;;;;;;;4940203;29;20414;-79
2022/05/24 12:44:47;;;;;;;0.90;0.90;;;;;;;;;;4904204;29;20047;-80
2022/05/24 12:47:17;;;;;;;0.95;0.95;;;;;;;;;;4926057;29;20075;-80
2022/05/24 12:49:47;;;;;;;0.93;0.93;;;;;;;;;;4933641;29;20525;-81
2022/05/24 12:52:24;;;;;;;1.10;1.10;;;;;;;;;;4917754;29;20044;-80
2022/05/24 12:54:55;;;;;;;1.40;1.17;;;;;;;;;;4933406;29;20044;-80
2022/05/24 12:57:26;;;;;;;1.08;1.00;;;;;;;;;;4917474;29;20048;-78
2022/05/24 12:59:55;;;;;;;0.80;0.80;;;;;;;;;;4943450;29;20040;-79
2022/05/24 13:02:44;;;;;;;0.90;0.90;;;;;;;;;;4925548;29;20052;-81
2022/05/24 13:05:22;;;;;;;1.55;1.10;;;;;;;;;;4928560;29;20050;-80
2022/05/24 13:07:53;;;;;;;1.75;1.20;;;;;;;;;;4943006;29;20043;-80
2022/05/24 13:10:21;;;;;;;2.08;1.77;;;;;;;;;;4919714;29;20044;-80
2022/05/24 13:13:00;;;;;;;2.38;1.20;;;;;;;;;;4924320;29;20039;-80
2022/05/24 13:15:32;;;;;;;3.13;2.10;;;;;;;;;;4930892;29;20475;-80
2022/05/24 13:18:03;;;;;;;5.07;1.45;;;;;;;;;;4937298;29;20078;-80
2022/05/24 13:20:33;;;;;;;4.32;1.58;;;;;;;;;;4936231;29;20051;-80
2022/05/24 13:23:03;;;;;;;2.22;1.38;;;;;;;;;;4922271;29;20127;-80
2022/05/24 13:25:49;;;;;;;3.63;1.50;;;;;;;;;;4938322;29;20122;-81
2022/05/24 13:28:35;;;;;;;2.03;1.30;;;;;;;;;;4918223;29;20066;-81
2022/05/24 13:33:53;;;;;;;3.08;1.60;;;;;;;;;;4940114;29;20127;-81
2022/05/24 13:36:22;;;;;;;2.60;1.42;;;;;;;;;;4941834;29;20036;-81
2022/05/24 13:38:52;;;;;;;2.72;1.50;;;;;;;;;;4930311;29;20074;-81
2022/05/24 13:41:27;;;;;;;3.08;1.50;;;;;;;;;;4935851;29;20071;-81
2022/05/24 13:44:08;;;;;;;1.45;1.35;;;;;;;;;;4933402;29;20051;-81
2022/05/24 13:46:51;;;;;;;2.20;1.60;;;;;;;;;;4928390;29;20074;-81
2022/05/24 13:49:30;;;;;;;1.85;1.40;;;;;;;;;;4909889;29;20046;-81
2022/05/24 13:52:27;;;;;;;2.67;1.55;;;;;;;;;;4912942;29;20044;-79
2022/05/24 13:55:13;;;;;;;1.98;1.88;;;;;;;;;;4925034;29;20653;-80
2022/05/24 13:57:54;;;;;;;2.22;1.50;;;;;;;;;;4929063;29;20131;-81
2022/05/24 14:00:28;;;;;;;2.72;1.80;;;;;;;;;;4923767;29;20035;-80
2022/05/24 14:03:08;;;;;;;1.88;1.45;;;;;;;;;;4931367;29;20043;-80
2022/05/24 14:05:36;;;;;;;2.83;1.67;;;;;;;;;;4917244;29;20047;-80
2022/05/24 14:08:06;;;;;;;3.22;1.65;;;;;;;;;;4940954;29;20046;-81
2022/05/24 14:10:36;;;;;;;5.63;1.73;;;;;;;;;;4921984;29;20244;-79
2022/05/24 14:13:04;;;;;;;1.50;1.40;;;;;;;;;;4919818;29;20047;-80
2022/05/24 14:15:31;;;;;;;2.72;1.63;;;;;;;;;;4921769;29;20051;-80
2022/05/24 14:18:03;;;;;;;1.20;1.20;;;;;;;;;;4938460;29;20061;-82
2022/05/24 14:20:36;;;;;;;2.00;1.90;;;;;;;;;;4914149;29;20043;-81
2022/05/24 14:23:03;;;;;;;3.22;1.60;;;;;;;;;;4934040;29;20048;-81
2022/05/24 14:25:31;;;;;;;3.67;1.27;;;;;;;;;;4921264;29;20063;-80
2022/05/24 14:28:05;;;;;;;1.77;1.63;;;;;;;;;;4908959;29;20044;-80
2022/05/24 14:30:35;;;;;;;2.92;1.50;;;;;;;;;;4927291;29;20040;-80
2022/05/24 14:33:03;;;;;;;2.55;1.70;;;;;;;;;;4947806;29;20035;-81
2022/05/24 14:35:35;;;;;;;2.33;1.50;;;;;;;;;;4925290;29;20055;-80
2022/05/24 14:38:03;;;;;;;2.60;1.02;;;;;;;;;;4912814;29;20116;-81
2022/05/24 14:40:37;;;;;;;1.83;1.00;;;;;;;;;;4897270;29;20064;-79
2022/05/24 14:43:14;;;;;;;2.38;1.00;;;;;;;;;;4896269;29;20139;-81
2022/05/24 14:45:41;;;;;;;2.03;1.08;;;;;;;;;;4926741;29;20457;-80
2022/05/24 14:48:12;;;;;;;3.00;1.10;;;;;;;;;;4930955;29;20051;-80
2022/05/24 14:50:40;;;;;;;2.00;1.20;;;;;;;;;;4903367;29;20044;-82
2022/05/24 14:53:07;;;;;;;1.40;1.30;;;;;;;;;;4902461;29;20119;-80
2022/05/24 14:55:36;;;;;;;2.88;1.20;;;;;;;;;;4941444;29;20485;-82
2022/05/24 14:58:04;;;;;;;1.45;1.10;;;;;;;;;;4905269;29;20061;-82
2022/05/24 15:00:34;;;;;;;1.52;1.00;;;;;;;;;;4936369;29;20052;-82
2022/05/24 15:03:03;;;;;;;3.05;1.15;;;;;;;;;;4925885;29;20059;-85
2022/05/24 15:05:33;;;;;;;4.55;1.20;;;;;;;;;;4931881;29;20044;-81
2022/05/24 15:16:41;;;;;;;0.80;0.80;;;;;;;;;;4904818;29;20119;-84
2022/05/24 15:19:09;;;;;;;1.30;0.85;;;;;;;;;;4929797;29;20517;-79
2022/05/24 15:21:38;;;;;;;1.48;0.90;;;;;;;;;;4929472;29;20048;-81
2022/05/24 15:24:09;;;;;;;1.45;0.70;;;;;;;;;;4927188;29;20032;-80
2022/05/24 15:26:40;;;;;;;0.90;0.90;;;;;;;;;;4910369;29;20055;-80
2022/05/24 15:29:08;;;;;;;0.82;0.80;;;;;;;;;;4899059;29;20055;-80
2022/05/24 15:31:36;;;;;;;0.70;0.70;;;;;;;;;;4917110;29;20040;-79
2022/05/24 15:34:04;;;;;;;2.22;0.70;;;;;;;;;;4903738;29;20055;-79
2022/05/24 15:36:31;;;;;;;1.27;0.70;;;;;;;;;;4922702;29;20072;-81
2022/05/24 15:39:00;;;;;;;1.05;0.47;;;;;;;;;;4903639;29;20055;-80
2022/05/24 15:41:27;;;;;;;4.18;0.70;;;;;;;;;;4921392;29;20055;-82
2022/05/24 15:43:55;;;;;;;0.80;0.50;;;;;;;;;;4921359;29;20043;-79
2022/05/24 15:46:22;;;;;;;1.35;0.40;;;;;;;;;;4921675;29;20040;-82
2022/05/24 15:48:51;;;;;;;2.75;0.60;;;;;;;;;;4923933;29;20059;-81
2022/05/24 15:51:19;;;;;;;1.48;0.50;;;;;;;;;;4928189;29;20349;-79
2022/05/24 15:53:47;;;;;;;1.73;0.40;;;;;;;;;;4926404;29;20336;-79
2022/05/24 15:56:15;;;;;;;1.27;0.30;;;;;;;;;;4911930;29;20095;-80
2022/05/24 15:58:43;;;;;;;0.80;0.40;;;;;;;;;;4909353;29;20479;-80
2022/05/24 16:01:12;;;;;;;2.00;0.30;;;;;;;;;;4928044;29;20055;-80
2022/05/24 16:03:44;;;;;;;0.43;0.30;;;;;;;;;;4907826;29;20769;-79
2022/05/24 16:12:05;;;;;;;2.00;0.50;;;;;;;;;;4870131;29;20100;-80
2022/05/24 16:14:35;;;;;;;0.40;0.30;;;;;;;;;;4858045;29;20143;-81